createdAt,value
2018-03-07T00:01:28.927Z,8.65
2018-03-07T00:03:57.062Z,8.65
2018-03-07T00:06:25.182Z,8.66
2018-03-07T00:08:53.274Z,8.63
2018-03-07T00:11:21.420Z,8.63
2018-03-07T00:13:49.517Z,8.56
2018-03-07T00:16:17.628Z,8.61
2018-03-07T00:18:45.739Z,8.58
2018-03-07T00:21:13.861Z,8.59
2018-03-07T00:23:42.012Z,8.52
2018-03-07T00:26:10.081Z,8.57
2018-03-07T00:28:38.210Z,8.53
2018-03-07T00:31:06.337Z,8.64
2018-03-07T00:33:34.447Z,8.67
2018-03-07T00:36:02.558Z,8.85
2018-03-07T00:38:30.664Z,8.55
2018-03-07T00:40:58.785Z,8.54
2018-03-07T00:43:26.908Z,8.73
2018-03-07T00:45:55.029Z,8.76
2018-03-07T00:48:23.138Z,8.75
2018-03-07T00:50:51.277Z,8.76
2018-03-07T00:53:19.401Z,8.72
2018-03-07T00:55:47.509Z,8.70
2018-03-07T00:58:15.642Z,8.71
2018-03-07T01:00:43.758Z,8.70
2018-03-07T01:03:11.865Z,8.69
2018-03-07T01:05:39.978Z,8.68
2018-03-07T01:08:08.090Z,8.75
2018-03-07T01:10:36.212Z,8.76
2018-03-07T01:13:04.329Z,8.81
2018-03-07T01:15:32.428Z,8.78
2018-03-07T01:18:00.558Z,8.77
2018-03-07T01:20:28.667Z,8.76
2018-03-07T01:22:56.797Z,8.72
2018-03-07T01:25:24.911Z,8.69
2018-03-07T01:27:53.021Z,8.64
2018-03-07T01:30:21.127Z,8.66
2018-03-07T01:32:49.242Z,8.63
2018-03-07T01:35:17.338Z,8.65
2018-03-07T01:37:45.458Z,8.70
2018-03-07T01:40:13.592Z,8.70
2018-03-07T01:42:41.712Z,8.71
2018-03-07T01:45:09.819Z,8.67
2018-03-07T01:47:37.930Z,8.61
2018-03-07T01:50:06.038Z,8.60
2018-03-07T01:52:34.151Z,8.57
2018-03-07T01:55:02.261Z,8.57
2018-03-07T01:57:30.397Z,8.56
2018-03-07T01:59:58.495Z,8.50
2018-03-07T02:02:26.592Z,8.53
2018-03-07T02:04:54.707Z,8.54
2018-03-07T02:07:22.836Z,8.53
2018-03-07T02:09:50.951Z,8.54
2018-03-07T02:12:19.150Z,8.50
2018-03-07T02:14:47.246Z,8.48
2018-03-07T02:17:15.363Z,8.43
2018-03-07T02:19:43.490Z,8.40
2018-03-07T02:22:11.602Z,8.32
2018-03-07T02:24:39.722Z,8.20
2018-03-07T02:27:07.838Z,8.19
2018-03-07T02:29:35.942Z,8.13
2018-03-07T02:32:04.057Z,7.96
2018-03-07T02:34:32.160Z,7.99
2018-03-07T02:37:00.286Z,7.97
2018-03-07T02:39:28.396Z,7.92
2018-03-07T02:41:56.496Z,7.85
2018-03-07T02:44:24.680Z,8.02
2018-03-07T02:46:52.844Z,7.99
2018-03-07T02:49:20.949Z,7.86
2018-03-07T02:51:49.062Z,7.73
2018-03-07T02:54:17.183Z,7.71
2018-03-07T02:56:45.285Z,7.79
2018-03-07T02:59:13.406Z,7.72
2018-03-07T03:01:45.324Z,7.64
2018-03-07T03:04:13.442Z,7.62
2018-03-07T03:06:41.532Z,7.53
2018-03-07T03:09:09.644Z,7.51
2018-03-07T03:11:37.755Z,7.42
2018-03-07T03:14:05.851Z,7.43
2018-03-07T03:16:33.967Z,7.42
2018-03-07T03:19:02.082Z,7.31
2018-03-07T03:21:30.190Z,7.26
2018-03-07T03:23:58.327Z,7.23
2018-03-07T03:26:26.438Z,7.20
2018-03-07T03:28:54.549Z,7.16
2018-03-07T03:31:22.663Z,7.15
2018-03-07T03:33:50.769Z,7.17
2018-03-07T03:36:18.891Z,7.26
2018-03-07T03:38:47.024Z,7.26
2018-03-07T03:41:15.148Z,7.28
2018-03-07T03:43:43.264Z,7.21
2018-03-07T03:46:11.382Z,7.14
2018-03-07T03:48:39.504Z,7.19
2018-03-07T03:51:07.616Z,7.22
2018-03-07T03:53:35.713Z,7.20
2018-03-07T03:56:03.833Z,7.14
2018-03-07T03:58:31.954Z,7.10
2018-03-07T04:01:00.066Z,7.09
2018-03-07T04:03:28.166Z,7.10
2018-03-07T04:05:56.290Z,7.07
2018-03-07T04:08:24.392Z,7.01
2018-03-07T04:10:52.726Z,6.95
2018-03-07T04:13:20.829Z,6.91
2018-03-07T04:15:48.956Z,6.92
2018-03-07T04:18:17.069Z,6.88
2018-03-07T04:20:45.180Z,6.88
2018-03-07T04:23:13.276Z,6.92
2018-03-07T04:25:41.408Z,6.92
2018-03-07T04:28:09.515Z,6.91
2018-03-07T04:30:37.639Z,6.82
2018-03-07T04:33:05.767Z,6.69
2018-03-07T04:35:33.858Z,6.67
2018-03-07T04:38:01.989Z,6.70
2018-03-07T04:40:30.101Z,6.67
2018-03-07T04:42:58.210Z,6.71
2018-03-07T04:45:26.336Z,6.65
2018-03-07T04:47:54.435Z,6.57
2018-03-07T04:50:22.553Z,6.54
2018-03-07T04:52:50.668Z,6.48
2018-03-07T04:55:19.094Z,6.47
2018-03-07T04:57:47.218Z,6.44
2018-03-07T05:00:15.334Z,6.42
2018-03-07T05:02:43.479Z,6.45
2018-03-07T05:05:11.554Z,6.44
2018-03-07T05:07:39.684Z,6.40
2018-03-07T05:10:07.787Z,6.37
2018-03-07T05:12:35.911Z,6.42
2018-03-07T05:15:04.035Z,6.46
2018-03-07T05:17:32.751Z,6.46
2018-03-07T05:20:00.882Z,6.49
2018-03-07T05:22:28.987Z,6.38
2018-03-07T05:24:57.101Z,6.32
2018-03-07T05:27:25.234Z,6.24
2018-03-07T05:29:53.394Z,6.19
2018-03-07T05:32:21.506Z,6.18
2018-03-07T05:34:49.637Z,6.22
2018-03-07T05:37:17.749Z,6.22
2018-03-07T05:39:45.880Z,6.29
2018-03-07T05:42:13.988Z,6.29
2018-03-07T05:44:42.094Z,6.28
2018-03-07T05:47:10.281Z,6.87
2018-03-07T05:49:38.385Z,6.41
2018-03-07T05:52:06.508Z,6.36
2018-03-07T05:54:34.617Z,6.35
2018-03-07T05:57:02.735Z,6.35
2018-03-07T05:59:30.832Z,6.46
2018-03-07T06:01:58.941Z,6.40
2018-03-07T06:04:27.054Z,6.37
2018-03-07T06:06:55.171Z,6.33
2018-03-07T06:09:23.283Z,6.39
2018-03-07T06:11:51.391Z,6.37
2018-03-07T06:14:19.527Z,6.35
2018-03-07T06:16:47.646Z,6.33
2018-03-07T06:19:15.744Z,6.27
2018-03-07T06:21:43.883Z,6.38
2018-03-07T06:24:12.004Z,6.43
2018-03-07T06:26:40.120Z,6.45
2018-03-07T06:29:08.351Z,6.48
2018-03-07T06:31:36.848Z,6.48
2018-03-07T06:34:05.007Z,6.46
2018-03-07T06:36:33.972Z,6.48
2018-03-07T06:39:02.078Z,6.50
2018-03-07T06:41:30.207Z,6.61
2018-03-07T06:43:58.313Z,6.49
2018-03-07T06:46:26.425Z,6.52
2018-03-07T06:48:54.544Z,6.51
2018-03-07T06:51:22.672Z,6.67
2018-03-07T06:53:50.799Z,6.81
2018-03-07T06:56:18.914Z,6.78
2018-03-07T06:58:47.042Z,6.98
2018-03-07T07:01:15.148Z,7.06
2018-03-07T07:03:43.278Z,7.16
2018-03-07T07:06:11.415Z,7.32
2018-03-07T07:08:39.521Z,7.54
2018-03-07T07:11:07.642Z,7.77
2018-03-07T07:13:35.763Z,8.07
2018-03-07T07:16:03.868Z,8.32
2018-03-07T07:18:31.993Z,8.32
2018-03-07T07:21:00.121Z,8.27
2018-03-07T07:23:28.253Z,8.23
2018-03-07T07:25:56.361Z,8.35
2018-03-07T07:28:24.508Z,8.27
2018-03-07T07:30:52.762Z,8.20
2018-03-07T07:33:20.848Z,8.20
2018-03-07T07:35:48.971Z,8.31
2018-03-07T07:38:17.096Z,8.37
2018-03-07T07:40:45.251Z,8.45
2018-03-07T07:43:13.337Z,8.46
2018-03-07T07:45:41.474Z,8.51
2018-03-07T07:48:09.621Z,8.53
2018-03-07T07:50:37.735Z,8.64
2018-03-07T07:53:05.854Z,8.76
2018-03-07T07:55:33.992Z,9.52
2018-03-07T07:58:02.111Z,10.20
2018-03-07T08:00:30.211Z,10.13
2018-03-07T08:02:58.350Z,10.06
2018-03-07T08:05:26.456Z,9.62
2018-03-07T08:07:54.595Z,9.88
2018-03-07T08:10:22.714Z,9.80
2018-03-07T08:12:50.843Z,9.59
2018-03-07T08:15:18.958Z,9.78
2018-03-07T08:17:47.081Z,9.98
2018-03-07T08:20:15.206Z,10.26
2018-03-07T08:22:43.338Z,10.25
2018-03-07T08:25:11.455Z,10.55
2018-03-07T08:27:39.629Z,10.61
2018-03-07T08:30:07.702Z,10.32
2018-03-07T08:32:35.821Z,10.69
2018-03-07T08:35:03.956Z,10.50
2018-03-07T08:37:32.083Z,10.63
2018-03-07T08:40:00.202Z,11.03
2018-03-07T08:42:28.343Z,10.88
2018-03-07T08:44:56.492Z,11.32
2018-03-07T08:47:24.601Z,11.45
2018-03-07T08:49:52.731Z,11.17
2018-03-07T08:52:20.858Z,11.15
2018-03-07T08:54:49.039Z,11.27
2018-03-07T08:57:17.109Z,11.20
2018-03-07T08:59:45.227Z,10.91
2018-03-07T09:02:13.332Z,11.17
2018-03-07T09:04:41.462Z,10.97
2018-03-07T09:07:11.500Z,11.19
2018-03-07T09:09:39.620Z,10.98
2018-03-07T09:12:07.728Z,11.37
2018-03-07T09:14:35.860Z,11.66
2018-03-07T09:17:03.976Z,11.50
2018-03-07T09:19:32.090Z,11.56
2018-03-07T09:22:00.205Z,11.60
2018-03-07T09:24:28.339Z,11.94
2018-03-07T09:26:56.453Z,11.64
2018-03-07T09:29:24.559Z,11.55
2018-03-07T09:31:52.708Z,11.52
2018-03-07T09:34:20.836Z,11.43
2018-03-07T09:36:48.960Z,11.32
2018-03-07T09:39:17.090Z,11.66
2018-03-07T09:41:45.200Z,11.93
2018-03-07T09:44:13.340Z,12.14
2018-03-07T09:46:41.461Z,12.61
2018-03-07T09:49:09.568Z,12.33
2018-03-07T09:51:37.692Z,12.54
2018-03-07T09:54:05.822Z,12.54
2018-03-07T09:56:34.028Z,12.08
2018-03-07T09:59:02.046Z,12.14
2018-03-07T10:01:30.160Z,12.48
2018-03-07T10:03:58.296Z,12.70
2018-03-07T10:06:26.438Z,12.64
2018-03-07T10:08:54.545Z,12.69
2018-03-07T10:11:22.665Z,12.93
2018-03-07T10:13:50.807Z,12.87
2018-03-07T10:16:18.913Z,12.48
2018-03-07T10:18:47.042Z,12.39
2018-03-07T10:21:15.161Z,13.02
2018-03-07T10:23:43.316Z,13.19
2018-03-07T10:26:11.439Z,13.03
2018-03-07T10:28:39.583Z,13.06
2018-03-07T10:31:07.653Z,13.00
2018-03-07T10:33:35.793Z,13.44
2018-03-07T10:36:03.919Z,12.85
2018-03-07T10:38:32.060Z,13.09
2018-03-07T10:41:00.204Z,12.33
2018-03-07T10:43:28.303Z,12.56
2018-03-07T10:45:56.416Z,12.92
2018-03-07T10:48:24.546Z,12.56
2018-03-07T10:50:52.880Z,12.22
2018-03-07T10:53:20.976Z,12.49
2018-03-07T10:55:49.100Z,12.31
2018-03-07T10:58:17.212Z,11.73
2018-03-07T11:00:45.331Z,11.94
2018-03-07T11:03:20.566Z,11.75
2018-03-07T11:05:54.006Z,11.94
2018-03-07T11:08:30.036Z,11.62
2018-03-07T11:10:58.239Z,11.60
2018-03-07T11:13:26.754Z,11.76
2018-03-07T11:15:54.874Z,11.58
2018-03-07T11:18:22.995Z,11.91
2018-03-07T11:20:51.104Z,11.42
2018-03-07T11:23:19.264Z,11.94
2018-03-07T11:25:47.389Z,11.60
2018-03-07T11:28:15.504Z,11.84
2018-03-07T11:30:43.680Z,11.69
2018-03-07T11:33:12.970Z,11.48
2018-03-07T11:35:42.993Z,11.45
2018-03-07T11:38:14.720Z,11.40
2018-03-07T11:40:47.140Z,11.57
2018-03-07T11:43:15.281Z,11.55
2018-03-07T11:45:43.403Z,11.65
2018-03-07T11:48:11.523Z,11.49
2018-03-07T11:50:39.636Z,11.46
2018-03-07T11:53:07.774Z,11.73
2018-03-07T11:55:35.883Z,11.58
2018-03-07T11:58:03.997Z,11.67
2018-03-07T12:00:32.121Z,11.38
2018-03-07T12:03:00.232Z,11.18
2018-03-07T12:05:28.363Z,11.10
2018-03-07T12:07:56.484Z,11.01
2018-03-07T12:10:24.619Z,11.11
2018-03-07T12:12:52.749Z,11.00
2018-03-07T12:15:20.903Z,11.11
2018-03-07T12:17:49.139Z,11.11
2018-03-07T12:20:17.261Z,10.71
2018-03-07T12:22:45.406Z,10.93
2018-03-07T12:25:13.578Z,10.78
2018-03-07T12:27:41.713Z,10.82
2018-03-07T12:30:09.846Z,10.76
2018-03-07T12:32:37.964Z,10.81
2018-03-07T12:35:06.098Z,10.68
2018-03-07T12:37:34.208Z,10.95
2018-03-07T12:40:02.325Z,10.64
2018-03-07T12:42:30.462Z,10.65
2018-03-07T12:44:58.566Z,10.46
2018-03-07T12:47:26.689Z,10.49
2018-03-07T12:49:55.275Z,10.55
2018-03-07T12:52:23.727Z,10.72
2018-03-07T12:54:55.699Z,10.63
2018-03-07T12:57:23.969Z,10.86
2018-03-07T12:59:52.095Z,10.92
2018-03-07T13:02:20.223Z,10.65
2018-03-07T13:04:48.337Z,10.81
2018-03-07T13:07:16.452Z,10.76
2018-03-07T13:09:47.979Z,10.53
2018-03-07T13:12:16.100Z,10.94
2018-03-07T13:14:44.264Z,10.97
2018-03-07T13:17:12.380Z,10.81
2018-03-07T13:19:40.509Z,10.69
2018-03-07T13:22:08.618Z,10.54
2018-03-07T13:24:36.750Z,10.35
2018-03-07T13:27:04.887Z,10.58
2018-03-07T13:29:33.020Z,10.59
2018-03-07T13:32:01.134Z,10.64
2018-03-07T13:34:29.279Z,10.36
2018-03-07T13:36:57.418Z,10.56
2018-03-07T13:39:25.548Z,10.57
2018-03-07T13:41:53.670Z,10.71
2018-03-07T13:44:21.790Z,10.83
2018-03-07T13:46:49.909Z,10.89
2018-03-07T13:49:18.140Z,10.77
2018-03-07T13:51:46.225Z,10.50
2018-03-07T13:54:14.361Z,10.38
2018-03-07T13:56:42.481Z,10.55
2018-03-07T13:59:14.363Z,10.71
2018-03-07T14:01:42.463Z,10.52
2018-03-07T14:04:10.720Z,10.67
2018-03-07T14:06:38.859Z,10.53
2018-03-07T14:09:06.982Z,10.81
2018-03-07T14:11:35.101Z,10.88
2018-03-07T14:14:03.524Z,10.74
2018-03-07T14:16:31.641Z,10.91
2018-03-07T14:18:59.751Z,11.04
2018-03-07T14:21:27.888Z,10.72
2018-03-07T14:23:56.013Z,10.67
2018-03-07T14:26:24.118Z,10.55
2018-03-07T14:28:52.273Z,10.62
2018-03-07T14:31:20.397Z,10.70
2018-03-07T14:33:48.818Z,10.85
2018-03-07T14:36:17.090Z,10.65
2018-03-07T14:38:45.207Z,10.64
2018-03-07T14:41:13.334Z,10.71
2018-03-07T14:43:41.454Z,10.83
2018-03-07T14:46:09.575Z,10.80
2018-03-07T14:48:37.700Z,10.72
2018-03-07T14:51:05.835Z,10.57
2018-03-07T14:53:33.939Z,10.50
2018-03-07T14:56:02.062Z,10.46
2018-03-07T14:58:30.166Z,10.64
2018-03-07T15:00:58.286Z,10.67
2018-03-07T15:03:26.433Z,10.73
2018-03-07T15:05:54.572Z,10.57
2018-03-07T15:08:22.680Z,10.54
2018-03-07T15:10:50.882Z,10.48
2018-03-07T15:13:19.011Z,10.31
2018-03-07T15:15:47.141Z,10.48
2018-03-07T15:18:15.258Z,10.52
2018-03-07T15:20:43.385Z,10.50
2018-03-07T15:23:11.505Z,10.47
2018-03-07T15:25:39.633Z,10.52
2018-03-07T15:28:07.758Z,10.55
2018-03-07T15:30:35.875Z,10.58
2018-03-07T15:33:04.014Z,10.44
2018-03-07T15:35:32.142Z,10.35
2018-03-07T15:38:00.268Z,10.39
2018-03-07T15:40:28.453Z,10.42
2018-03-07T15:42:56.530Z,10.43
2018-03-07T15:45:24.659Z,10.54
2018-03-07T15:47:52.772Z,10.59
2018-03-07T15:50:20.880Z,10.45
2018-03-07T15:52:48.999Z,10.52
2018-03-07T15:55:17.131Z,10.44
2018-03-07T15:57:45.241Z,10.44
2018-03-07T16:00:13.372Z,10.40
2018-03-07T16:02:41.477Z,10.46
2018-03-07T16:05:09.609Z,10.32
2018-03-07T16:07:37.763Z,10.44
2018-03-07T16:10:05.860Z,10.39
2018-03-07T16:12:33.995Z,10.32
2018-03-07T16:15:02.122Z,10.21
2018-03-07T16:17:30.232Z,10.17
2018-03-07T16:20:01.453Z,10.28
2018-03-07T16:22:29.568Z,10.25
2018-03-07T16:24:57.660Z,10.31
2018-03-07T16:27:25.784Z,10.40
2018-03-07T16:29:53.889Z,10.16
2018-03-07T16:32:22.026Z,10.30
2018-03-07T16:34:50.436Z,10.29
2018-03-07T16:37:18.637Z,10.24
2018-03-07T16:39:46.751Z,10.33
2018-03-07T16:42:14.891Z,10.23
2018-03-07T16:44:43.025Z,10.19
2018-03-07T16:47:11.121Z,10.20
2018-03-07T16:49:39.236Z,10.31
2018-03-07T16:52:07.359Z,10.19
2018-03-07T16:54:35.476Z,10.19
2018-03-07T16:57:03.562Z,10.20
2018-03-07T16:59:31.686Z,10.24
2018-03-07T17:01:59.813Z,10.28
2018-03-07T17:04:27.903Z,10.14
2018-03-07T17:06:56.061Z,10.12
2018-03-07T17:09:24.152Z,10.03
2018-03-07T17:11:52.282Z,10.11
2018-03-07T17:14:20.418Z,10.16
2018-03-07T17:16:48.736Z,10.21
2018-03-07T17:19:17.774Z,10.17
2018-03-07T17:21:45.886Z,9.95
2018-03-07T17:24:14.013Z,9.68
2018-03-07T17:26:42.206Z,9.47
2018-03-07T17:29:10.311Z,9.32
2018-03-07T17:31:38.421Z,9.09
2018-03-07T17:34:06.527Z,9.16
2018-03-07T17:36:34.645Z,9.04
2018-03-07T17:39:02.741Z,8.87
2018-03-07T17:41:30.840Z,8.89
2018-03-07T17:43:58.939Z,8.90
2018-03-07T17:46:27.052Z,9.34
2018-03-07T17:48:55.176Z,8.95
2018-03-07T17:51:23.287Z,8.81
2018-03-07T17:53:51.526Z,8.57
2018-03-07T17:56:20.852Z,8.31
2018-03-07T17:58:49.162Z,8.66
2018-03-07T18:01:17.664Z,8.50
2018-03-07T18:03:46.915Z,8.57
2018-03-07T18:06:15.367Z,8.69
2018-03-07T18:08:45.144Z,8.75
2018-03-07T18:11:13.592Z,8.90
2018-03-07T18:13:49.518Z,8.75
2018-03-07T18:16:18.340Z,8.63
2018-03-07T18:18:46.553Z,8.71
2018-03-07T18:21:15.620Z,8.83
2018-03-07T18:23:43.841Z,8.80
2018-03-07T18:26:12.680Z,8.80
2018-03-07T18:28:40.913Z,8.81
2018-03-07T18:31:09.232Z,8.82
2018-03-07T18:33:37.578Z,8.79
2018-03-07T18:36:05.912Z,8.96
2018-03-07T18:38:34.764Z,8.82
2018-03-07T18:41:03.011Z,8.37
2018-03-07T18:43:31.902Z,8.74
2018-03-07T18:46:01.114Z,8.67
2018-03-07T18:48:30.549Z,8.69
2018-03-07T18:50:59.478Z,8.54
2018-03-07T18:53:29.384Z,8.72
2018-03-07T18:55:58.305Z,8.66
2018-03-07T18:58:26.653Z,8.49
2018-03-07T19:00:55.073Z,8.45
2018-03-07T19:03:23.319Z,8.45
2018-03-07T19:05:54.003Z,8.53
2018-03-07T19:08:24.516Z,8.27
2018-03-07T19:10:53.720Z,8.33
2018-03-07T19:13:21.814Z,8.45
2018-03-07T19:15:54.700Z,8.45
2018-03-07T19:18:22.822Z,8.42
2018-03-07T19:20:51.028Z,8.32
2018-03-07T19:23:19.765Z,8.52
2018-03-07T19:25:48.724Z,8.50
2018-03-07T19:28:18.096Z,8.52
2018-03-07T19:30:46.626Z,8.40
2018-03-07T19:33:15.786Z,8.33
2018-03-07T19:35:44.243Z,8.38
2018-03-07T19:38:13.178Z,8.40
2018-03-07T19:40:41.667Z,8.19
2018-03-07T19:43:10.655Z,8.07
2018-03-07T19:45:39.826Z,8.06
2018-03-07T19:48:08.940Z,8.12
2018-03-07T19:50:37.860Z,8.19
2018-03-07T19:53:06.857Z,8.23
2018-03-07T19:55:35.377Z,8.21
2018-03-07T19:58:03.727Z,8.05
2018-03-07T20:00:32.736Z,8.20
2018-03-07T20:03:02.493Z,8.29
2018-03-07T20:05:32.819Z,8.29
2018-03-07T20:08:04.622Z,8.13
2018-03-07T20:10:32.928Z,7.93
2018-03-07T20:13:01.798Z,8.06
2018-03-07T20:15:30.126Z,8.19
2018-03-07T20:18:00.757Z,8.09
2018-03-07T20:20:29.312Z,8.23
2018-03-07T20:22:57.514Z,8.20
2018-03-07T20:25:26.148Z,8.27
2018-03-07T20:27:54.509Z,8.14
2018-03-07T20:30:27.898Z,8.08
2018-03-07T20:32:57.473Z,8.21
2018-03-07T20:35:26.439Z,8.23
2018-03-07T20:37:55.739Z,8.04
2018-03-07T20:40:24.038Z,8.18
2018-03-07T20:42:52.155Z,8.16
2018-03-07T20:45:20.284Z,8.15
2018-03-07T20:47:48.584Z,8.15
2018-03-07T20:50:17.549Z,8.03
2018-03-07T20:52:46.323Z,8.15
2018-03-07T20:55:16.538Z,8.20
2018-03-07T20:57:47.279Z,8.08
2018-03-07T21:00:15.736Z,8.08
2018-03-07T21:02:45.492Z,8.07
2018-03-07T21:05:15.880Z,8.16
2018-03-07T21:07:44.398Z,8.07
2018-03-07T21:10:12.889Z,8.16
2018-03-07T21:12:41.584Z,8.06
2018-03-07T21:15:11.376Z,7.86
2018-03-07T21:17:40.724Z,7.67
2018-03-07T21:20:10.639Z,7.78
2018-03-07T21:22:39.610Z,7.70
2018-03-07T21:25:08.217Z,7.44
2018-03-07T21:27:36.960Z,7.49
2018-03-07T21:30:05.355Z,7.51
2018-03-07T21:32:34.006Z,7.39
2018-03-07T21:35:02.628Z,7.51
2018-03-07T21:37:30.931Z,7.51
2018-03-07T21:39:59.398Z,7.48
2018-03-07T21:42:27.838Z,7.50
2018-03-07T21:44:56.162Z,7.48
2018-03-07T21:47:24.493Z,7.63
2018-03-07T21:49:53.036Z,7.56
2018-03-07T21:52:21.341Z,7.69
2018-03-07T21:54:49.851Z,7.45
2018-03-07T21:57:18.425Z,7.24
2018-03-07T21:59:46.705Z,7.10
2018-03-07T22:02:14.916Z,7.27
2018-03-07T22:04:43.454Z,7.21
2018-03-07T22:07:11.922Z,7.17
2018-03-07T22:09:40.221Z,7.21
2018-03-07T22:12:10.554Z,7.20
2018-03-07T22:14:40.958Z,7.31
2018-03-07T22:17:09.641Z,7.28
2018-03-07T22:19:38.077Z,7.30
2018-03-07T22:22:06.822Z,7.22
2018-03-07T22:24:35.341Z,7.32
2018-03-07T22:27:03.648Z,7.27
2018-03-07T22:29:32.213Z,7.25
2018-03-07T22:32:00.785Z,7.25
2018-03-07T22:34:29.827Z,7.39
2018-03-07T22:36:58.301Z,7.22
2018-03-07T22:39:29.978Z,7.30
2018-03-07T22:41:58.350Z,7.16
2018-03-07T22:44:26.494Z,7.17
2018-03-07T22:46:54.912Z,7.23
2018-03-07T22:49:23.224Z,7.04
2018-03-07T22:51:51.522Z,6.98
2018-03-07T22:54:19.735Z,7.07
2018-03-07T22:56:47.996Z,6.92
2018-03-07T22:59:16.598Z,6.94
2018-03-07T23:01:44.926Z,7.14
2018-03-07T23:04:13.189Z,6.95
2018-03-07T23:06:41.416Z,7.08
2018-03-07T23:09:09.750Z,7.28
2018-03-07T23:11:41.470Z,7.23
2018-03-07T23:14:09.706Z,7.12
2018-03-07T23:16:38.007Z,7.00
2018-03-07T23:19:06.244Z,6.99
2018-03-07T23:21:34.824Z,7.19
2018-03-07T23:24:03.475Z,7.09
2018-03-07T23:26:32.400Z,6.99
2018-03-07T23:29:00.599Z,7.25
2018-03-07T23:31:28.955Z,7.01
2018-03-07T23:33:57.334Z,6.84
2018-03-07T23:36:26.303Z,7.09
2018-03-07T23:38:54.964Z,7.05
2018-03-07T23:41:23.469Z,6.89
2018-03-07T23:43:51.804Z,7.14
2018-03-07T23:46:20.305Z,7.21
2018-03-07T23:48:48.702Z,7.22
2018-03-07T23:51:17.604Z,7.29
2018-03-07T23:53:46.028Z,7.38
2018-03-07T23:56:14.590Z,7.36
2018-03-07T23:58:42.812Z,7.13
